Terminal Aerodrome Forecast
Issued by NWS Bismarck, ND

Home | Current Version | Previous Version | Graphics & Text | Print | Product List | Glossary On
Versions: 1 2 3 4 5 6 7 8 9 10 11 12 13 14 15 16 17 18 19 20 21 22 23
000
FTUS43 KBIS 221120
TAFBIS
TAF
KBIS 221120Z 2212/2312 VRB03KT P6SM FEW250
     FM221500 22008KT P6SM FEW060 FEW250
     FM222300 29008KT P6SM FEW060 SCT100
     FM230100 04008KT P6SM SCT060 BKN110
     FM230600 07011G20KT P6SM BKN060=

USA.gov is the U.S. government's official web portal to all federal, state and local government web resources and services.